Time;durP1;ratioP1;P1;durP2;ratioP2;P2;SDS_P1;SDS_P2;PMS_P1;PMS_P2;Temp;Humidity;BMP_temperature;BMP_pressure;BME280_temperature;BME280_humidity;BME280_pressure;Samples;Min_cycle;Max_cycle;Signal;HPM_P1;HPM_P2
2022/05/11 00:00:46;;;;;;;15.55;7.00;;;13.60;99.90;;;;;;5035845;28;20355;-85
2022/05/11 00:03:12;;;;;;;13.15;7.40;;;13.60;99.90;;;;;;5040013;28;20044;-84
2022/05/11 00:05:38;;;;;;;15.13;7.15;;;13.60;99.90;;;;;;5047307;28;20497;-84
2022/05/11 00:08:04;;;;;;;15.18;7.35;;;13.60;99.90;;;;;;5053940;28;20035;-84
2022/05/11 00:10:32;;;;;;;16.17;6.72;;;13.60;99.90;;;;;;5029388;28;20044;-85
2022/05/11 00:12:58;;;;;;;16.33;6.93;;;13.60;99.90;;;;;;5042005;28;20047;-85
2022/05/11 00:15:25;;;;;;;14.35;6.78;;;13.60;99.90;;;;;;5022619;28;20040;-84
2022/05/11 00:17:51;;;;;;;12.43;6.82;;;13.60;99.90;;;;;;5047051;28;20039;-83
2022/05/11 00:20:19;;;;;;;16.25;7.38;;;13.70;99.90;;;;;;5043778;28;20082;-84
2022/05/11 00:22:45;;;;;;;14.32;6.45;;;13.70;99.90;;;;;;5046753;28;20044;-86
2022/05/11 00:25:15;;;;;;;16.40;7.22;;;13.70;99.90;;;;;;5030336;28;20068;-85
2022/05/11 00:27:40;;;;;;;12.18;6.63;;;13.70;99.90;;;;;;5040557;28;20040;-85
2022/05/11 00:30:07;;;;;;;14.75;7.20;;;13.70;99.90;;;;;;5031909;28;20099;-85
2022/05/11 00:32:33;;;;;;;16.67;7.25;;;13.70;99.90;;;;;;5031395;28;20032;-85
2022/05/11 00:34:58;;;;;;;17.05;7.75;;;13.70;99.90;;;;;;5054422;28;20563;-85
2022/05/11 00:37:24;;;;;;;14.10;7.03;;;13.70;99.90;;;;;;5010670;28;20040;-85
2022/05/11 00:39:50;;;;;;;13.27;6.88;;;13.70;99.90;;;;;;5034232;28;20033;-85
2022/05/11 00:42:16;;;;;;;13.50;6.82;;;13.70;99.90;;;;;;5043270;28;20106;-84
2022/05/11 00:44:42;;;;;;;12.57;7.03;;;13.70;99.90;;;;;;5039599;28;20051;-84
2022/05/11 00:47:22;;;;;;;15.75;7.00;;;13.70;99.90;;;;;;5048727;28;20040;-84
2022/05/11 00:50:03;;;;;;;14.05;6.65;;;13.70;99.90;;;;;;5041863;28;20036;-85
2022/05/11 00:52:59;;;;;;;13.40;6.45;;;13.70;99.90;;;;;;5045890;28;20706;-84
2022/05/11 00:55:37;;;;;;;14.93;6.93;;;13.70;99.90;;;;;;5037850;28;20043;-84
2022/05/11 00:58:17;;;;;;;13.27;6.80;;;13.70;99.90;;;;;;5059147;28;20296;-84
2022/05/11 01:00:44;;;;;;;12.85;6.43;;;13.70;99.90;;;;;;5055775;28;20040;-84
2022/05/11 01:03:15;;;;;;;16.55;6.75;;;13.80;99.90;;;;;;5051373;28;20045;-85
2022/05/11 01:05:42;;;;;;;12.85;6.82;;;13.80;99.90;;;;;;5048039;28;20133;-84
2022/05/11 01:08:08;;;;;;;14.38;6.60;;;13.80;99.90;;;;;;5045370;28;20079;-85
2022/05/11 01:10:34;;;;;;;13.75;7.28;;;13.80;99.90;;;;;;5025482;28;20044;-85
2022/05/11 01:13:04;;;;;;;13.18;7.15;;;13.80;99.90;;;;;;5045502;28;20125;-85
2022/05/11 01:15:32;;;;;;;15.38;6.93;;;13.80;99.90;;;;;;5046290;28;20209;-85
2022/05/11 01:18:01;;;;;;;16.92;7.18;;;13.80;99.90;;;;;;5053283;28;20036;-84
2022/05/11 01:20:29;;;;;;;13.25;6.20;;;13.80;99.90;;;;;;5046061;28;20162;-84
2022/05/11 01:23:16;;;;;;;14.05;7.15;;;13.80;99.90;;;;;;5045406;28;20037;-85
2022/05/11 01:25:41;;;;;;;15.52;7.20;;;13.80;99.90;;;;;;5051913;28;20033;-85
2022/05/11 01:28:14;;;;;;;15.35;7.50;;;13.80;99.90;;;;;;5037943;28;20040;-84
2022/05/11 01:30:42;;;;;;;13.25;6.65;;;13.80;99.90;;;;;;5040198;28;20160;-84
2022/05/11 01:33:09;;;;;;;12.65;6.50;;;13.80;99.90;;;;;;5041903;28;20049;-84
2022/05/11 01:35:57;;;;;;;13.80;6.78;;;13.80;99.90;;;;;;5048997;28;20389;-85
2022/05/11 01:38:43;;;;;;;14.50;6.60;;;13.80;99.90;;;;;;5052721;28;20053;-84
2022/05/11 01:41:18;;;;;;;16.10;6.32;;;13.80;99.90;;;;;;5039610;28;20033;-85
2022/05/11 01:43:44;;;;;;;15.10;7.38;;;13.80;99.90;;;;;;5042404;28;20049;-84
2022/05/11 01:46:10;;;;;;;13.35;6.93;;;13.80;99.90;;;;;;5031075;28;20033;-84
2022/05/11 01:48:36;;;;;;;14.57;7.63;;;13.80;99.90;;;;;;5055338;28;20068;-84
2022/05/11 01:51:03;;;;;;;14.25;7.05;;;13.80;99.90;;;;;;5031168;28;20457;-84
2022/05/11 01:53:29;;;;;;;13.57;7.35;;;13.70;99.90;;;;;;5047929;28;20078;-84
2022/05/11 01:55:55;;;;;;;17.30;8.20;;;13.70;99.90;;;;;;5054384;28;20397;-85
2022/05/11 01:58:22;;;;;;;17.17;7.50;;;13.70;99.90;;;;;;5030779;28;20126;-85
2022/05/11 02:00:48;;;;;;;12.10;6.40;;;13.70;99.90;;;;;;5044069;28;20083;-84
2022/05/11 02:03:18;;;;;;;14.80;6.90;;;13.70;99.90;;;;;;5046850;28;20049;-84
2022/05/11 02:08:30;;;;;;;12.55;6.38;;;13.70;99.90;;;;;;5044191;28;20116;-84
2022/05/11 02:10:56;;;;;;;14.13;6.60;;;13.60;99.90;;;;;;5027149;28;20036;-83
2022/05/11 02:13:22;;;;;;;11.85;6.05;;;13.60;99.90;;;;;;5010564;28;20386;-85
2022/05/11 02:15:49;;;;;;;14.88;5.95;;;13.60;99.90;;;;;;5039922;28;20047;-84
2022/05/11 02:18:16;;;;;;;14.30;6.10;;;13.60;99.90;;;;;;5031673;28;20151;-85
2022/05/11 02:20:42;;;;;;;11.88;6.00;;;13.60;99.90;;;;;;5037594;28;20508;-84
2022/05/11 02:23:08;;;;;;;12.55;6.00;;;13.60;99.90;;;;;;5036345;28;20045;-84
2022/05/11 02:25:34;;;;;;;14.18;6.10;;;13.60;99.90;;;;;;5058306;28;20489;-84
2022/05/11 02:27:59;;;;;;;13.13;6.55;;;13.60;99.90;;;;;;5047919;28;20032;-85
2022/05/11 02:30:28;;;;;;;13.00;6.15;;;13.60;99.90;;;;;;5046734;28;20049;-84
2022/05/11 02:32:55;;;;;;;10.75;5.72;;;13.60;99.90;;;;;;5045708;28;20040;-84
2022/05/11 02:35:24;;;;;;;14.32;5.97;;;13.60;99.90;;;;;;5030673;28;20080;-84
2022/05/11 02:37:56;;;;;;;11.40;5.43;;;13.60;99.90;;;;;;5045617;28;20044;-84
2022/05/11 02:40:25;;;;;;;13.02;6.20;;;13.60;99.90;;;;;;5046450;28;20032;-84
2022/05/11 02:42:51;;;;;;;12.85;6.03;;;13.60;99.90;;;;;;5040198;28;20161;-84
2022/05/11 02:45:18;;;;;;;11.52;6.00;;;13.60;99.90;;;;;;5042472;28;20033;-85
2022/05/11 02:47:45;;;;;;;12.98;5.63;;;13.60;99.90;;;;;;5048546;28;20029;-84
2022/05/11 02:50:14;;;;;;;12.15;5.88;;;13.60;99.90;;;;;;5016037;28;20417;-84
2022/05/11 02:52:40;;;;;;;12.95;5.50;;;13.60;99.90;;;;;;5045944;28;20037;-85
2022/05/11 02:55:06;;;;;;;12.68;5.65;;;13.60;99.90;;;;;;5037730;28;20045;-84
2022/05/11 02:57:32;;;;;;;13.55;5.50;;;13.60;99.90;;;;;;5027875;28;20037;-84
2022/05/11 02:59:58;;;;;;;13.27;5.65;;;13.60;99.90;;;;;;5039964;28;20819;-84
2022/05/11 03:02:25;;;;;;;12.05;5.25;;;13.60;99.90;;;;;;5028657;28;20401;-85
2022/05/11 03:04:51;;;;;;;12.40;5.57;;;13.60;99.90;;;;;;5047097;28;20032;-84
2022/05/11 03:07:17;;;;;;;11.88;5.50;;;13.50;99.90;;;;;;5025233;28;20033;-85
2022/05/11 03:09:43;;;;;;;13.02;5.65;;;13.60;99.90;;;;;;5054948;28;20044;-84
2022/05/11 03:12:09;;;;;;;10.02;5.25;;;13.60;99.90;;;;;;5029412;28;20048;-84
2022/05/11 03:14:35;;;;;;;12.73;5.57;;;13.60;99.90;;;;;;5043476;28;20032;-84
2022/05/11 03:17:02;;;;;;;12.02;5.60;;;13.60;99.90;;;;;;5025641;28;20537;-84
2022/05/11 03:19:29;;;;;;;10.98;5.57;;;13.60;99.90;;;;;;5044251;28;20048;-84
2022/05/11 03:21:55;;;;;;;11.68;5.40;;;13.60;99.90;;;;;;5046042;28;20128;-85
2022/05/11 03:24:21;;;;;;;12.13;5.63;;;13.60;99.90;;;;;;5028301;28;20028;-85
2022/05/11 03:26:47;;;;;;;11.55;5.30;;;13.60;99.90;;;;;;5046226;28;20032;-86
2022/05/11 03:29:13;;;;;;;11.80;5.50;;;13.60;99.90;;;;;;5025145;28;20040;-84
2022/05/11 03:31:40;;;;;;;10.95;4.97;;;13.50;99.90;;;;;;5063343;28;20094;-84
2022/05/11 03:36:51;;;;;;;13.10;5.25;;;13.50;99.90;;;;;;5054947;28;20103;-85
2022/05/11 03:39:18;;;;;;;11.85;5.10;;;13.60;99.90;;;;;;5055427;28;20048;-84
2022/05/11 03:41:48;;;;;;;11.23;4.72;;;13.50;99.90;;;;;;5004412;28;20028;-84
2022/05/11 03:44:14;;;;;;;11.77;5.10;;;13.60;99.90;;;;;;5034987;28;20041;-85
2022/05/11 03:46:40;;;;;;;12.98;4.85;;;13.60;99.90;;;;;;5029530;28;20448;-84
2022/05/11 03:49:06;;;;;;;11.70;5.20;;;13.50;99.90;;;;;;5042710;28;20099;-85
2022/05/11 03:51:32;;;;;;;11.75;5.07;;;13.60;99.90;;;;;;5030950;28;20120;-85
2022/05/11 03:53:57;;;;;;;13.10;5.00;;;13.50;99.90;;;;;;5028466;28;20115;-85
2022/05/11 03:56:23;;;;;;;9.88;4.72;;;13.50;99.90;;;;;;5043568;28;20509;-84
2022/05/11 03:58:49;;;;;;;12.75;5.38;;;13.50;99.90;;;;;;5024577;28;20037;-84
2022/05/11 04:01:15;;;;;;;12.40;5.15;;;14.50;99.90;;;;;;5008976;28;20110;-84
2022/05/11 04:03:41;;;;;;;11.80;5.20;;;13.60;99.90;;;;;;5039990;28;20040;-84
2022/05/11 04:06:07;;;;;;;12.10;5.15;;;13.50;99.90;;;;;;5044285;28;20512;-85
2022/05/11 04:08:33;;;;;;;11.15;4.90;;;13.60;99.90;;;;;;5035612;28;20044;-85
2022/05/11 04:10:59;;;;;;;15.88;5.55;;;13.60;99.90;;;;;;5035225;28;20077;-84
2022/05/11 04:13:25;;;;;;;12.02;5.15;;;13.60;99.90;;;;;;5028393;28;20040;-85
2022/05/11 04:15:52;;;;;;;16.85;5.72;;;13.60;99.90;;;;;;5041141;28;20682;-85
2022/05/11 04:18:19;;;;;;;13.02;5.65;;;13.60;99.90;;;;;;5046227;28;20041;-84
2022/05/11 04:20:45;;;;;;;12.50;5.75;;;13.60;99.90;;;;;;5028358;28;20449;-84
2022/05/11 04:23:11;;;;;;;13.63;5.68;;;13.60;99.90;;;;;;5044523;28;20390;-85
2022/05/11 04:25:38;;;;;;;13.43;5.55;;;13.60;99.90;;;;;;5044684;28;20028;-84
2022/05/11 04:28:08;;;;;;;11.10;5.07;;;13.60;99.90;;;;;;5047906;28;20132;-84
2022/05/11 04:30:34;;;;;;;13.77;5.35;;;13.60;99.90;;;;;;5057353;28;20043;-84
2022/05/11 04:32:59;;;;;;;12.25;5.35;;;13.60;99.90;;;;;;5027327;28;20166;-84
2022/05/11 04:35:30;;;;;;;11.88;5.30;;;13.60;99.90;;;;;;5046429;28;20068;-84
2022/05/11 04:38:00;;;;;;;13.00;5.45;;;13.60;99.90;;;;;;5031515;28;20062;-84
2022/05/11 04:40:27;;;;;;;12.50;5.47;;;13.60;99.90;;;;;;5044650;28;20041;-84
2022/05/11 04:42:53;;;;;;;13.10;5.38;;;13.60;99.90;;;;;;5027941;28;20112;-84
2022/05/11 04:45:19;;;;;;;12.85;5.70;;;13.60;99.90;;;;;;5047190;28;20481;-84
2022/05/11 04:47:45;;;;;;;15.68;5.20;;;13.70;99.90;;;;;;5053491;28;20037;-84
2022/05/11 04:50:13;;;;;;;12.00;4.90;;;13.70;99.90;;;;;;5017438;28;20124;-84
2022/05/11 04:52:39;;;;;;;12.50;5.38;;;13.70;99.90;;;;;;5034068;28;20464;-84
2022/05/11 04:55:07;;;;;;;15.65;5.60;;;13.70;99.90;;;;;;5036055;28;20125;-83
2022/05/11 04:57:33;;;;;;;12.77;4.90;;;13.70;99.90;;;;;;5037040;28;20059;-84
2022/05/11 04:59:59;;;;;;;14.75;5.60;;;13.80;99.90;;;;;;5026768;28;20533;-85
2022/05/11 05:02:27;;;;;;;12.23;4.88;;;13.80;99.90;;;;;;5018352;28;20116;-84
2022/05/11 05:04:58;;;;;;;13.05;4.63;;;13.80;99.90;;;;;;5024167;28;20032;-84
2022/05/11 05:07:25;;;;;;;13.77;5.07;;;13.80;99.90;;;;;;5035259;28;20568;-85
2022/05/11 05:09:50;;;;;;;10.73;4.70;;;13.80;99.90;;;;;;5044851;28;20268;-84
2022/05/11 05:12:16;;;;;;;13.25;5.68;;;13.80;99.90;;;;;;5046225;28;20511;-84
2022/05/11 05:14:43;;;;;;;13.73;5.10;;;13.80;99.90;;;;;;5046809;28;20110;-84
2022/05/11 05:17:10;;;;;;;12.55;4.47;;;13.80;99.90;;;;;;5050532;28;20401;-85
2022/05/11 05:19:45;;;;;;;10.60;4.70;;;13.90;99.90;;;;;;5038693;28;20395;-86
2022/05/11 05:22:12;;;;;;;12.25;4.68;;;13.90;99.90;;;;;;5050147;28;20043;-85
2022/05/11 05:24:38;;;;;;;11.82;4.50;;;13.90;99.90;;;;;;5045990;28;20035;-85
2022/05/11 05:27:04;;;;;;;11.77;4.72;;;13.90;99.90;;;;;;5047376;28;20045;-85
2022/05/11 05:32:16;;;;;;;10.23;4.18;;;14.00;99.90;;;;;;5056105;28;20504;-86
2022/05/11 05:34:45;;;;;;;13.23;4.50;;;14.00;99.90;;;;;;5037835;28;20067;-85
2022/05/11 05:37:13;;;;;;;12.18;4.90;;;14.00;99.90;;;;;;5036196;28;20418;-85
2022/05/11 05:39:39;;;;;;;15.90;5.00;;;14.00;99.90;;;;;;5058797;28;20048;-85
2022/05/11 05:42:05;;;;;;;12.55;4.70;;;14.00;99.90;;;;;;5039417;28;20036;-85
2022/05/11 05:44:32;;;;;;;13.75;4.63;;;14.10;99.90;;;;;;5063750;28;20544;-85
2022/05/11 05:47:05;;;;;;;13.73;4.57;;;14.10;99.90;;;;;;5034404;28;20074;-85
2022/05/11 05:49:31;;;;;;;13.65;4.57;;;14.10;99.90;;;;;;5011537;28;20456;-85
2022/05/11 05:51:59;;;;;;;13.15;4.47;;;14.10;99.90;;;;;;5038863;28;20393;-84
2022/05/11 05:54:25;;;;;;;14.32;5.10;;;14.20;99.90;;;;;;5052014;28;20043;-85
2022/05/11 05:56:51;;;;;;;11.70;4.80;;;14.20;99.90;;;;;;5019671;28;20076;-85
2022/05/11 05:59:18;;;;;;;10.82;4.43;;;14.20;99.90;;;;;;5042965;28;20032;-85
2022/05/11 06:01:43;;;;;;;12.15;4.75;;;14.30;99.90;;;;;;5048619;28;20119;-85
2022/05/11 06:04:09;;;;;;;13.02;4.80;;;14.30;99.90;;;;;;5050507;28;20470;-86
2022/05/11 06:06:35;;;;;;;13.32;5.03;;;14.40;99.90;;;;;;5043874;28;20040;-88
2022/05/11 06:09:03;;;;;;;12.77;4.50;;;14.40;99.90;;;;;;5031157;28;20279;-87
2022/05/11 06:11:28;;;;;;;16.27;4.68;;;14.40;99.90;;;;;;5029492;28;20466;-86
2022/05/11 06:13:54;;;;;;;13.27;5.10;;;14.40;99.90;;;;;;5011888;28;20120;-89
2022/05/11 06:16:20;;;;;;;14.98;4.80;;;14.50;99.90;;;;;;5028171;28;20032;-88
2022/05/11 06:18:46;;;;;;;11.77;4.65;;;14.50;99.90;;;;;;5028215;28;20532;-86
2022/05/11 06:21:13;;;;;;;18.45;5.32;;;14.50;99.90;;;;;;5046572;28;20043;-86
2022/05/11 06:23:39;;;;;;;13.20;5.00;;;14.60;99.90;;;;;;5043282;28;20052;-88
2022/05/11 06:26:05;;;;;;;12.82;5.05;;;14.70;99.90;;;;;;5061011;28;20085;-87
2022/05/11 06:28:31;;;;;;;13.40;5.07;;;14.80;99.90;;;;;;5031051;28;20462;-87
2022/05/11 06:30:57;;;;;;;13.52;4.55;;;14.90;99.90;;;;;;5044231;28;20033;-88
2022/05/11 06:33:22;;;;;;;13.13;5.10;;;14.90;99.90;;;;;;5047544;28;20052;-91
2022/05/11 06:35:48;;;;;;;14.93;4.90;;;15.00;99.90;;;;;;5045811;28;20107;-88
2022/05/11 06:38:14;;;;;;;14.07;4.88;;;15.20;99.90;;;;;;5033223;28;20250;-88
2022/05/11 06:40:40;;;;;;;13.98;4.70;;;15.10;99.90;;;;;;5036812;28;20061;-89
2022/05/11 06:43:06;;;;;;;14.00;5.20;;;15.20;99.90;;;;;;5029360;28;20048;-88
2022/05/11 06:45:32;;;;;;;14.15;5.00;;;15.30;99.90;;;;;;5029619;28;20039;-89
2022/05/11 06:47:58;;;;;;;15.50;5.38;;;15.30;99.90;;;;;;5039537;28;20033;-88
2022/05/11 06:50:26;;;;;;;11.95;4.63;;;15.40;99.90;;;;;;5044520;28;20473;-86
2022/05/11 06:52:56;;;;;;;13.27;5.15;;;15.40;99.90;;;;;;5055326;28;20232;-86
2022/05/11 07:00:50;;;;;;;14.88;5.13;;;15.40;99.90;;;;;;5042236;28;20041;-88
2022/05/11 07:03:16;;;;;;;15.10;5.30;;;15.40;99.90;;;;;;5038532;28;20086;-88
2022/05/11 07:05:43;;;;;;;14.60;5.13;;;15.50;99.90;;;;;;5030780;28;20277;-86
2022/05/11 07:08:09;;;;;;;15.32;5.25;;;15.50;99.90;;;;;;5035113;28;20076;-87
2022/05/11 07:10:42;;;;;;;15.60;4.85;;;15.50;99.90;;;;;;5008796;28;20513;-87
2022/05/11 07:13:08;;;;;;;;;;;15.50;99.90;;;;;;5040317;28;20079;-87
2022/05/11 07:15:34;;;;;;;13.40;5.18;;;15.50;99.90;;;;;;5056694;28;19924;-88
2022/05/11 07:18:04;;;;;;;14.75;4.93;;;15.50;99.90;;;;;;5032004;28;20039;-88
2022/05/11 07:20:36;;;;;;;16.23;5.47;;;15.60;99.90;;;;;;5052482;28;20068;-87
2022/05/11 07:23:04;;;;;;;17.98;5.07;;;15.60;99.90;;;;;;5030762;28;20037;-88
2022/05/11 07:25:30;;;;;;;15.82;4.80;;;15.70;99.90;;;;;;5054423;28;20040;-88
2022/05/11 07:27:57;;;;;;;14.70;4.82;;;15.70;99.90;;;;;;5055258;28;20485;-90
2022/05/11 07:30:33;;;;;;;18.08;5.57;;;15.70;99.90;;;;;;5041239;28;20044;-94
2022/05/11 07:33:00;;;;;;;15.60;5.20;;;15.80;99.90;;;;;;5040017;28;20509;-88
2022/05/11 07:35:26;;;;;;;16.63;5.47;;;15.90;99.90;;;;;;5046038;28;20078;-89
2022/05/11 07:37:52;;;;;;;17.33;6.20;;;15.90;99.90;;;;;;5047169;28;20048;-88
2022/05/11 07:40:20;;;;;;;13.32;5.25;;;15.90;99.90;;;;;;5015999;28;20056;-87
2022/05/11 07:42:46;;;;;;;13.80;5.88;;;15.90;99.90;;;;;;5034703;28;20123;-88
2022/05/11 07:45:13;;;;;;;16.40;5.70;;;16.00;99.90;;;;;;5045130;28;20102;-89
2022/05/11 07:47:39;;;;;;;18.20;6.20;;;16.00;99.90;;;;;;5057287;28;20040;-90
2022/05/11 07:50:09;;;;;;;15.95;5.55;;;16.10;99.90;;;;;;5030301;28;20052;-89
2022/05/11 07:52:35;;;;;;;13.85;5.22;;;16.10;99.90;;;;;;5036941;28;20119;-88
2022/05/11 07:55:00;;;;;;;16.42;5.40;;;16.20;99.90;;;;;;5027401;28;20482;-88
2022/05/11 08:00:12;;;;;;;14.50;5.90;;;16.30;99.90;;;;;;5041369;28;20084;-86
2022/05/11 08:02:39;;;;;;;11.93;4.90;;;16.40;99.90;;;;;;5057712;28;20075;-88
2022/05/11 08:05:11;;;;;;;13.57;4.60;;;16.50;99.90;;;;;;5024560;28;20037;-88
2022/05/11 08:07:46;;;;;;;16.40;4.78;;;16.50;99.90;;;;;;5034499;28;20040;-89
2022/05/11 08:10:18;;;;;;;13.35;4.60;;;16.60;99.90;;;;;;5051691;28;20044;-92
2022/05/11 08:12:44;;;;;;;14.80;4.63;;;16.80;99.90;;;;;;5036629;28;20098;-88
2022/05/11 08:15:13;;;;;;;13.25;4.85;;;16.90;99.90;;;;;;5032168;28;20044;-87
2022/05/11 08:17:41;;;;;;;14.82;5.32;;;16.90;99.90;;;;;;5045497;28;20033;-90
2022/05/11 08:20:14;;;;;;;10.90;4.50;;;17.00;99.90;;;;;;5050463;28;20048;-87
2022/05/11 08:22:45;;;;;;;13.75;4.88;;;17.10;99.90;;;;;;5031741;28;20387;-88
2022/05/11 08:25:16;;;;;;;14.65;4.80;;;17.20;99.90;;;;;;5043662;28;20040;-90
2022/05/11 08:27:42;;;;;;;15.43;5.57;;;17.30;99.90;;;;;;5041510;28;20037;-90
2022/05/11 08:35:39;;;;;;;15.65;5.05;;;17.60;99.90;;;;;;5041636;28;20061;-90
2022/05/11 08:38:05;;;;;;;11.75;4.15;;;17.60;99.90;;;;;;5041864;28;20068;-87
2022/05/11 08:40:37;;;;;;;14.52;4.70;;;17.70;99.90;;;;;;5043354;28;20109;-91
2022/05/11 08:43:06;;;;;;;12.75;3.90;;;17.70;99.90;;;;;;5048323;28;20124;-87
2022/05/11 08:45:40;;;;;;;15.18;3.90;;;17.70;99.90;;;;;;5056713;28;20045;-87
2022/05/11 08:48:10;;;;;;;16.40;3.95;;;17.70;99.90;;;;;;5047718;28;20040;-89
2022/05/11 08:50:41;;;;;;;12.90;3.70;;;17.70;99.90;;;;;;5041254;28;21301;-90
2022/05/11 08:53:31;;;;;;;13.25;4.00;;;17.70;99.90;;;;;;5048478;28;20036;-90
2022/05/11 08:55:59;;;;;;;15.32;3.75;;;17.70;99.90;;;;;;5041819;28;20047;-88
2022/05/11 08:58:33;;;;;;;14.43;4.15;;;17.70;99.90;;;;;;5037940;28;20047;-89
2022/05/11 09:01:00;;;;;;;13.48;3.90;;;17.70;99.90;;;;;;5052848;28;20043;-88
2022/05/11 09:03:41;;;;;;;14.40;4.18;;;17.70;99.90;;;;;;5036742;28;20128;-91
2022/05/11 09:14:16;;;;;;;14.10;3.58;;;17.90;99.90;;;;;;5057328;28;20060;-92
2022/05/11 09:20:52;;;;;;;15.57;3.78;;;17.80;99.90;;;;;;5060071;28;20106;-88
2022/05/11 09:23:43;;;;;;;14.55;3.72;;;18.00;99.90;;;;;;5036006;28;20049;-86
2022/05/11 09:26:16;;;;;;;15.30;3.92;;;17.90;99.90;;;;;;5036874;28;20066;-91
2022/05/11 09:28:45;;;;;;;13.52;3.50;;;18.00;99.90;;;;;;5037426;28;20080;-87
2022/05/11 09:31:24;;;;;;;14.10;3.30;;;17.90;99.90;;;;;;5040647;28;20044;-87
2022/05/11 09:34:00;;;;;;;12.63;3.40;;;18.00;99.90;;;;;;5023697;28;20040;-89
2022/05/11 09:36:40;;;;;;;15.13;3.67;;;18.10;99.90;;;;;;5030419;28;20147;-89
2022/05/11 09:39:14;;;;;;;15.57;3.58;;;18.10;99.90;;;;;;5026252;28;20049;-90
2022/05/11 09:41:42;;;;;;;12.82;3.38;;;18.30;99.90;;;;;;5033130;28;20037;-91
2022/05/11 09:44:23;;;;;;;12.50;3.30;;;18.60;99.90;;;;;;5027099;28;20044;-89
2022/05/11 09:46:50;;;;;;;12.95;3.60;;;18.80;99.90;;;;;;5042942;28;20033;-89
2022/05/11 09:49:16;;;;;;;15.00;3.38;;;19.00;99.90;;;;;;5030545;28;20157;-87
2022/05/11 09:51:50;;;;;;;15.32;4.22;;;19.00;99.90;;;;;;5024852;28;20037;-91
2022/05/11 09:54:28;;;;;;;12.75;3.35;;;18.90;99.90;;;;;;5041611;28;20044;-90
2022/05/11 09:57:13;;;;;;;15.20;3.83;;;18.70;99.90;;;;;;5055729;28;20040;-90
2022/05/11 09:59:40;;;;;;;16.00;3.95;;;18.60;99.90;;;;;;5058211;28;20037;-89
2022/05/11 10:02:24;;;;;;;15.65;3.40;;;18.40;99.90;;;;;;5058214;28;20036;-90
2022/05/11 10:05:10;;;;;;;12.15;3.30;;;18.30;99.90;;;;;;5055946;28;20041;-87
2022/05/11 10:08:02;;;;;;;14.77;3.50;;;18.60;99.90;;;;;;5049196;28;20124;-89
2022/05/11 10:10:43;;;;;;;14.32;3.35;;;18.50;99.90;;;;;;5041080;28;20033;-92
2022/05/11 10:13:18;;;;;;;13.10;3.45;;;18.50;99.90;;;;;;5049299;28;20050;-90
2022/05/11 10:21:54;;;;;;;13.13;3.20;;;18.50;99.90;;;;;;5055366;28;20037;-91
2022/05/11 10:25:01;;;;;;;10.35;2.75;;;18.50;99.90;;;;;;5058351;28;20064;-90
2022/05/11 10:27:46;;;;;;;10.45;2.53;;;18.40;99.90;;;;;;5043844;28;20037;-89
2022/05/11 10:30:37;;;;;;;12.85;2.85;;;18.30;99.90;;;;;;5048204;28;20040;-90
2022/05/11 10:33:31;;;;;;;15.40;3.15;;;18.30;99.90;;;;;;5055593;28;20116;-90
2022/05/11 10:36:09;;;;;;;12.75;2.78;;;18.30;99.90;;;;;;5061663;28;20270;-87
2022/05/11 10:38:44;;;;;;;11.60;2.60;;;18.50;99.90;;;;;;5038196;28;20059;-93
2022/05/11 10:41:28;;;;;;;11.63;3.17;;;18.40;99.90;;;;;;5068163;28;20051;-90
2022/05/11 10:44:07;;;;;;;11.45;2.70;;;18.50;99.90;;;;;;5040945;28;20060;-90
2022/05/11 10:46:36;;;;;;;12.32;2.90;;;18.40;99.90;;;;;;5055616;28;20520;-89
2022/05/11 10:49:29;;;;;;;11.70;2.90;;;18.40;99.90;;;;;;5049704;28;20042;-90
2022/05/11 10:52:00;;;;;;;9.35;2.67;;;18.40;99.90;;;;;;5056631;28;20037;-92
2022/05/11 10:55:03;;;;;;;13.90;2.90;;;18.70;99.90;;;;;;5039333;28;20041;-90
2022/05/11 10:57:54;;;;;;;12.98;3.22;;;19.00;99.90;;;;;;5038299;28;20043;-89
2022/05/11 11:00:22;;;;;;;11.13;2.60;;;19.30;99.90;;;;;;5053088;28;20124;-88
2022/05/11 11:03:12;;;;;;;13.32;4.20;;;19.50;99.90;;;;;;5065828;28;20036;-89
2022/05/11 11:05:40;;;;;;;12.50;3.20;;;19.80;99.90;;;;;;5043973;28;20044;-88
2022/05/11 11:08:35;;;;;;;9.68;3.15;;;20.00;99.90;;;;;;5055982;28;20088;-89
2022/05/11 11:11:28;;;;;;;12.13;2.85;;;20.10;99.90;;;;;;5061223;28;20501;-89
2022/05/11 11:14:01;;;;;;;11.93;3.08;;;20.20;99.90;;;;;;5050529;28;20044;-91
2022/05/11 11:16:36;;;;;;;12.00;2.60;;;20.40;99.90;;;;;;5039604;28;20048;-92
2022/05/11 11:19:05;;;;;;;12.90;2.83;;;20.50;99.90;;;;;;5035013;28;20040;-88
2022/05/11 11:21:32;;;;;;;12.73;3.25;;;20.60;99.90;;;;;;5034897;28;20098;-91
2022/05/11 11:24:23;;;;;;;10.48;2.95;;;20.70;99.90;;;;;;5038562;28;20114;-93
2022/05/11 11:27:03;;;;;;;7.70;2.13;;;20.70;99.90;;;;;;5061341;28;20093;-91
2022/05/11 11:30:07;;;;;;;9.68;2.40;;;20.80;99.90;;;;;;5048002;28;20032;-89
2022/05/11 11:32:53;;;;;;;11.85;2.50;;;20.80;99.90;;;;;;5041273;28;20048;-93
2022/05/11 11:35:22;;;;;;;12.23;2.70;;;20.70;99.90;;;;;;5041596;28;20064;-89
2022/05/11 11:37:59;;;;;;;11.18;2.53;;;20.60;99.90;;;;;;5038562;28;20055;-88
2022/05/11 11:40:27;;;;;;;11.30;2.40;;;20.60;99.90;;;;;;5047509;28;20048;-90
2022/05/11 11:42:54;;;;;;;12.35;2.70;;;20.70;99.90;;;;;;5049370;28;20036;-90
2022/05/11 11:45:50;;;;;;;9.05;2.30;;;20.60;99.90;;;;;;5038405;28;20036;-91
2022/05/11 11:48:25;;;;;;;11.20;2.72;;;20.50;99.90;;;;;;5050733;28;20482;-91
2022/05/11 11:51:00;;;;;;;9.52;2.40;;;20.50;99.90;;;;;;5043422;28;20053;-90
2022/05/11 11:53:50;;;;;;;10.90;2.53;;;20.50;99.90;;;;;;5049527;28;20037;-92
2022/05/11 11:56:25;;;;;;;12.63;2.65;;;20.60;99.90;;;;;;5050722;28;20048;-89
2022/05/11 11:59:03;;;;;;;10.77;2.45;;;20.70;99.90;;;;;;5053135;28;20406;-90
2022/05/11 12:01:32;;;;;;;9.57;2.40;;;20.50;99.90;;;;;;5057805;28;20037;-92
2022/05/11 12:04:01;;;;;;;10.52;2.65;;;20.20;99.90;;;;;;5053433;28;20155;-88
2022/05/11 12:15:01;;;;;;;11.02;2.65;;;20.70;99.90;;;;;;5053257;28;20088;-92
2022/05/11 12:17:32;;;;;;;10.57;2.15;;;20.90;99.90;;;;;;5040571;28;20033;-89
2022/05/11 12:20:04;;;;;;;9.63;2.05;;;20.90;99.90;;;;;;5051378;28;20080;-90
2022/05/11 12:22:31;;;;;;;9.30;2.30;;;20.80;99.90;;;;;;5054527;28;20040;-93
2022/05/11 12:25:21;;;;;;;12.43;2.20;;;20.90;99.90;;;;;;5041572;28;20041;-91
2022/05/11 12:27:48;;;;;;;8.80;2.25;;;21.10;99.90;;;;;;5044518;28;20037;-89
2022/05/11 12:30:40;;;;;;;8.77;1.92;;;21.20;99.90;;;;;;5039736;28;20040;-89
2022/05/11 12:33:08;;;;;;;7.30;1.95;;;21.20;99.90;;;;;;5041622;28;20044;-91
2022/05/11 12:35:41;;;;;;;6.55;1.70;;;21.20;99.90;;;;;;5027996;28;20140;-88
2022/05/11 12:38:12;;;;;;;8.20;1.88;;;21.20;99.90;;;;;;5052398;28;20080;-89
2022/05/11 12:40:42;;;;;;;8.60;2.00;;;21.20;99.90;;;;;;5043088;28;20040;-88
2022/05/11 12:43:21;;;;;;;12.40;2.33;;;21.20;99.90;;;;;;5062879;28;20082;-90
2022/05/11 12:45:48;;;;;;;9.80;1.70;;;21.10;99.90;;;;;;5054988;28;20048;-88
2022/05/11 12:48:48;;;;;;;10.20;2.10;;;21.20;99.90;;;;;;5038278;28;20032;-89
2022/05/11 12:51:16;;;;;;;9.15;1.90;;;21.30;99.90;;;;;;5048693;28;20051;-90
2022/05/11 12:53:54;;;;;;;6.18;1.75;;;21.20;99.90;;;;;;5052110;28;20082;-92
2022/05/11 12:56:31;;;;;;;8.77;2.00;;;21.20;99.90;;;;;;5045176;28;20131;-90
2022/05/11 12:59:00;;;;;;;7.90;1.83;;;21.20;99.90;;;;;;5052237;28;20068;-89
2022/05/11 13:01:31;;;;;;;9.18;1.95;;;21.10;99.90;;;;;;5040587;28;20179;-88
2022/05/11 13:03:59;;;;;;;9.70;2.50;;;21.00;99.90;;;;;;5048495;28;20044;-93
2022/05/11 13:06:36;;;;;;;10.13;2.20;;;21.00;99.90;;;;;;5048878;28;20039;-89
2022/05/11 13:09:24;;;;;;;10.27;1.98;;;21.00;99.90;;;;;;5040672;28;20029;-92
2022/05/11 13:11:50;;;;;;;9.50;1.80;;;21.10;99.90;;;;;;5075578;28;20040;-92
2022/05/11 13:14:23;;;;;;;10.73;2.20;;;21.20;99.90;;;;;;5049637;28;20040;-91
2022/05/11 13:16:54;;;;;;;10.00;2.30;;;21.40;99.90;;;;;;5050147;28;20032;-90
2022/05/11 13:19:29;;;;;;;9.48;2.15;;;21.40;99.90;;;;;;5054076;28;20040;-90
2022/05/11 13:21:58;;;;;;;11.55;2.50;;;21.60;99.90;;;;;;5052858;28;20032;-89
2022/05/11 13:24:39;;;;;;;12.18;2.50;;;21.60;99.90;;;;;;5053856;28;20124;-89
2022/05/11 13:27:38;;;;;;;10.30;2.28;;;21.50;99.90;;;;;;5045548;28;20126;-87
2022/05/11 13:30:10;;;;;;;9.95;2.35;;;21.40;99.90;;;;;;5041558;28;20063;-88
2022/05/11 13:32:46;;;;;;;10.57;2.10;;;21.20;99.90;;;;;;5040353;28;20040;-87
2022/05/11 13:35:20;;;;;;;11.15;2.38;;;21.20;99.90;;;;;;5040803;28;20072;-90
2022/05/11 13:37:55;;;;;;;14.13;2.80;;;21.20;99.90;;;;;;5050913;28;20044;-88
2022/05/11 13:40:37;;;;;;;15.77;2.42;;;21.10;99.90;;;;;;5051097;28;20032;-90
2022/05/11 13:43:20;;;;;;;9.65;2.00;;;21.20;99.90;;;;;;5049103;28;20037;-88
2022/05/11 13:46:03;;;;;;;12.55;2.60;;;21.20;99.90;;;;;;5043802;28;20036;-89